Surrency, Georgia
Current Conditions -  °F | °C
As of 6:35 AM on Saturday 22 Nov 2014 (Local Time) from KBHC Reporting Station
Clear Clear  
Wind Chill: 45°   Ceiling: Unl
Heat Index: 48°   Visibility: 10mi
Dew Point: 43°   Wind: 8mph
Humidity: 82%   Direction: 70°ENE
Pressure: 30.4"   Gusts: NA
Location:  31.72°N, 82.2°W
Report Text: KBHC 221135Z AUTO 07007KT 10SM CLR 09/06 A3040 RMK AO2
Loading
Personal Weather Stations






























Interactive Weather Map New forecast layout! Learn more

10-Day Weather Forecast

Advertisements
Track Severe Weather on mobile